createdAt,value
2023-01-21T10:56:37.432Z,9.65
2023-01-21T10:59:13.637Z,17.52
2023-01-21T11:01:45.942Z,10.10
2023-01-21T11:57:21.872Z,9.57
2023-01-21T11:59:50.124Z,10.70
2023-01-21T12:02:19.457Z,7.43
2023-01-21T12:28:17.486Z,8.35
2023-01-21T12:30:59.010Z,12.95
2023-01-21T12:33:46.667Z,6.22
2023-01-21T12:36:26.984Z,7.25
2023-01-21T12:39:22.666Z,10.07
2023-01-21T12:42:01.875Z,5.90
2023-01-21T12:44:48.761Z,4.30
2023-01-21T12:47:32.961Z,4.07
2023-01-21T12:50:10.956Z,10.55
2023-01-21T12:53:04.281Z,8.48
2023-01-21T12:55:56.148Z,30.50
2023-01-21T12:58:28.987Z,23.48
2023-01-21T13:01:02.765Z,25.20
2023-01-21T13:03:42.026Z,18.42
2023-01-21T13:06:19.283Z,18.50
2023-01-21T13:08:55.507Z,13.32
2023-01-21T13:11:42.911Z,16.55
2023-01-21T13:14:10.130Z,22.27
2023-01-21T13:16:46.444Z,22.48
2023-01-21T13:19:15.278Z,18.80
2023-01-21T13:22:06.020Z,15.45
2023-01-21T13:25:01.356Z,33.45
2023-01-21T13:28:21.190Z,19.45
2023-01-21T13:31:06.408Z,19.55
2023-01-21T13:33:42.380Z,17.02
2023-01-21T13:36:12.375Z,21.08
2023-01-21T13:39:01.056Z,18.92
2023-01-21T13:41:40.621Z,20.55
2023-01-21T13:44:25.783Z,20.65
2023-01-21T13:47:26.998Z,19.10
2023-01-21T13:50:19.795Z,11.98
2023-01-21T13:52:55.060Z,11.93
2023-01-21T13:55:39.222Z,12.63
2023-01-21T13:58:15.131Z,14.50
2023-01-21T14:01:11.723Z,15.75
2023-01-21T14:03:56.028Z,12.50
2023-01-21T14:06:37.143Z,16.95
2023-01-21T14:09:11.326Z,8.50
2023-01-21T14:12:02.253Z,10.65
2023-01-21T14:15:03.127Z,10.82
2023-01-21T14:17:59.481Z,8.35
2023-01-21T14:21:03.455Z,9.07
2023-01-21T14:23:30.843Z,6.80
2023-01-21T14:26:08.400Z,8.25
2023-01-21T14:28:54.368Z,12.82
2023-01-21T14:31:32.150Z,10.13
2023-01-21T14:34:12.014Z,11.38
2023-01-21T14:37:11.265Z,9.05
2023-01-21T14:39:38.508Z,7.72
2023-01-21T14:42:10.889Z,10.38
2023-01-21T14:44:48.734Z,3.80
2023-01-21T14:47:24.605Z,9.05
2023-01-21T14:49:54.016Z,6.18
2023-01-21T14:52:43.624Z,5.38
2023-01-21T14:55:28.146Z,6.78
2023-01-21T14:57:57.054Z,8.02
2023-01-21T15:00:30.346Z,7.13
2023-01-21T15:03:15.330Z,6.45
2023-01-21T15:05:50.358Z,7.85
2023-01-21T15:08:46.261Z,6.10
2023-01-21T15:11:19.884Z,9.13
2023-01-21T15:14:02.426Z,7.65
2023-01-21T15:16:35.914Z,9.00
2023-01-21T15:19:08.985Z,7.93
2023-01-21T15:21:42.373Z,10.35
2023-01-21T15:24:22.931Z,8.55
2023-01-21T15:27:22.147Z,8.43
2023-01-21T15:29:58.850Z,8.50
2023-01-21T15:32:39.194Z,9.75
2023-01-21T15:35:25.150Z,8.38
2023-01-21T15:38:00.254Z,8.80
2023-01-21T15:40:39.073Z,4.43
2023-01-21T15:43:43.812Z,7.97
2023-01-21T15:46:20.769Z,8.40
2023-01-21T15:48:53.568Z,8.25
2023-01-21T15:51:52.826Z,11.07
2023-01-21T15:54:49.095Z,14.52
2023-01-21T15:57:40.834Z,8.40
2023-01-21T16:00:37.877Z,15.38
2023-01-21T16:03:19.611Z,10.15
2023-01-21T16:14:07.836Z,16.45
2023-01-21T16:16:50.473Z,9.27
2023-01-21T16:19:28.336Z,9.63
2023-01-21T16:22:01.268Z,7.97
2023-01-21T16:24:30.026Z,7.07
2023-01-21T16:27:17.395Z,10.82
2023-01-21T16:29:45.015Z,12.32
2023-01-21T16:32:19.863Z,8.88
2023-01-21T16:34:47.884Z,14.13
2023-01-21T16:37:25.990Z,5.32
2023-01-21T16:39:55.732Z,11.07
2023-01-21T16:42:40.890Z,9.18
2023-01-21T16:45:19.015Z,6.90
2023-01-21T16:47:53.655Z,10.43
2023-01-21T16:50:24.668Z,10.82
2023-01-21T16:52:54.379Z,6.90
2023-01-21T16:55:25.805Z,7.63
2023-01-21T16:57:57.358Z,11.93
2023-01-21T17:00:30.725Z,8.10
2023-01-21T17:02:59.824Z,6.50
2023-01-21T17:05:30.655Z,11.35
2023-01-21T17:08:02.215Z,8.20
2023-01-21T17:10:39.503Z,7.75
2023-01-21T17:13:15.896Z,6.95
2023-01-21T17:15:58.264Z,7.47
2023-01-21T17:18:31.819Z,7.00
2023-01-21T17:21:08.465Z,8.00
2023-01-21T17:23:53.517Z,8.63
